University of Tampa, Florida
Current Conditions -  °F | °C
As of 9:53 PM on Sunday 21 Dec 2014 (Local Time) from KTPA Reporting Station
Overcast Overcast  
Wind Chill: 68°   Ceiling: 6500
Heat Index: 68°   Visibility: 10mi
Dew Point: 65°   Wind: 3mph
Humidity: 90%   Direction: 90°E
Pressure: 30.03"   Gusts: NA
Location:  27.9407°N, 82.474°W
Report Text: KTPA 220253Z 09003KT 10SM SCT030 OVC065 20/18 A3003 RMK AO2 RAE05B37E50 SLP169 P0001 60002 T02000183 53001
Loading
Personal Weather Stations






























Interactive Weather Map New forecast layout! Learn more

10-Day Weather Forecast

Advertisements
Track Severe Weather on mobile